Sjorring, Denmark
Current Conditions -  °F | °C
As of 2:50 AM on Friday 21 Nov 2014 (Local Time) from EKYT Reporting Station
Light Fog Light Fog  
Wind Chill: 36°   Ceiling: Unl
Heat Index: 36°   Visibility: 0.75mi
Dew Point: 36°   Wind: 2mph
Humidity: 100%   Direction: 10°N
Pressure: 30.36"   Gusts: NA
Location:  56.95°N, 8.6°E
Report Text: EKYT 210150Z 01002KT 1200 R08/0750VP1500U R26/0650N BCFGNSC 02/02 Q1028 RMK BKN060
Loading
Personal Weather Stations






























Interactive Weather Map New forecast layout! Learn more

10-Day Weather Forecast

Advertisements
Track Severe Weather on mobile